ADDS METAR Data INFO
IDs: Format: Raw Decoded Include TAF

Data at: 2028 UTC 20 Jul 2018

KDYR 201956Z AUTO VRB04KT 10SM CLR 34/24 A2985 RMK AO2 SLP116 T03390244 PNO $
KDYR 201856Z AUTO VRB04KT 10SM CLR 33/24 A2987 RMK AO2 SLP123 T03280244 PNO $
KDYR 201756Z AUTO VRB05KT 10SM CLR 32/26 A2989 RMK AO2 SLP130 6//// T03170256 10317 20239 58010 PNO $
KDYR 201656Z AUTO 22006KT 10SM CLR 31/25 A2991 RMK AO2 SLP135 T03060250 PNO $
KDYR 201556Z AUTO VRB05KT 10SM CLR 29/24 A2992 RMK AO2 SLP139 T02890239 PNO $
KDYR 201456Z AUTO 23008KT 10SM CLR 29/23 A2992 RMK AO2 SLP140 6//// T02890233 50001 PNO $
KDYR 201356Z AUTO 22005KT 10SM CLR 28/23 A2992 RMK AO2 SLP141 T02780233 PNO $
KDYR 201256Z AUTO 22004KT 10SM CLR 26/22 A2992 RMK AO2 SLP141 T02610222 PNO $
KDYR 201156Z AUTO 18004KT 10SM CLR 24/21 A2992 RMK AO2 SLP139 6//// 7//// T02390211 10256 20233 53013 PNO $
KDYR 201056Z AUTO 18004KT 10SM CLR 23/22 A2990 RMK AO2 SLP133 T02330217 PNO $
KDYR 200956Z AUTO 17004KT 10SM SCT028 23/22 A2988 RMK AO2 SLP127 T02330217 PNO $
KDYR 200856Z AUTO 00000KT 10SM CLR 23/22 A2988 RMK AO2 SLP126 6//// T02330217 53003 PNO $
KDYR 200756Z AUTO 18003KT 10SM CLR 24/22 A2987 RMK AO2 SLP121 T02390217 PNO $
KDYR 200656Z AUTO 16005KT 10SM CLR 24/21 A2987 RMK AO2 SLP123 T02440211 PNO $
KDYR 200556Z AUTO 17007KT 10SM CLR 26/22 A2987 RMK AO2 SLP123 6//// T02560217 10311 20256 403330222 58003 PNO $
KDYR 200456Z AUTO 16007KT 10SM CLR 27/24 A2989 RMK AO2 SLP128 T02670239 PNO $
KDYR 200356Z AUTO 00000KT 9SM CLR 27/24 A2991 RMK AO2 SLP138 T02670244 PNO $
KDYR 200256Z AUTO 00000KT 10SM CLR 27/24 A2988 RMK AO2 LTG DSNT SE AND S SLP127 6//// T02720244 51009 PNO $
KDYR 200156Z AUTO 11003KT 10SM CLR 28/26 A2987 RMK AO2 SLP125 T02830256 PNO $
KDYR 200056Z AUTO 11003KT 10SM CLR 29/26 A2987 RMK AO2 LTG DSNT NE AND E SLP124 T02890261 PNO $
KDYR 192356Z AUTO 18003KT 10SM CLR 31/25 A2985 RMK AO2 LTG DSNT N AND NE SLP117 6//// T03110250 10333 20306 58008 PNO $
KDYR 192256Z AUTO 00000KT 10SM FEW047 31/25 A2987 RMK AO2 LTG DSNT N SLP123 T03110250 PNO $
KDYR 192156Z AUTO 00000KT 8SM FEW043 32/24 A2987 RMK AO2 SLP123 T03170244 PNO $
KDYR 192056Z AUTO 21004KT 10SM FEW041 32/24 A2988 RMK AO2 SLP126 6//// T03170239 58017 PNO $
KDYR 191956Z AUTO 17004KT 10SM CLR 33/24 A2990 RMK AO2 SLP133 T03280239 PNO $
KDYR 191856Z AUTO 16004KT 6SM HZ FEW036 32/24 A2992 RMK AO2 SLP139 T03220239 PNO $
KDYR 191756Z AUTO 17005KT 10SM FEW034 32/24 A2993 RMK AO2 SLP142 6//// T03170244 10317 20233 56009 PNO $
KDYR 191734Z AUTO VRB03KT 10SM SCT029 31/24 A2994 RMK AO2 PNO $
KDYR 191713Z AUTO VRB03KT 10SM BKN027 31/24 A2994 RMK AO2 PNO $
KDYR 191656Z AUTO 14006KT 10SM FEW027 31/24 A2994 RMK AO2 SLP146 T03110239 PNO $
KDYR 191556Z AUTO 17005KT 10SM CLR 29/23 A2994 RMK AO2 SLP148 T02940233 PNO $
KDYR 191456Z AUTO 17005KT 10SM CLR 28/23 A2995 RMK AO2 SLP152 6//// T02830228 58001 PNO $
KDYR 191256Z AUTO VRB03KT 10SM SCT060 24/21 A2997 RMK AO2 SLP157 T02440211 PNO $
KDYR 191156Z AUTO 09004KT 10SM CLR 23/21 A2996 RMK AO2 SLP153 6//// 7//// T02330206 10244 20222 53004 PNO $
KDYR 191056Z AUTO 08004KT 10SM SCT048 22/21 A2995 RMK AO2 SLP151 T02220206 PNO $
KDYR 190956Z AUTO 06004KT 10SM CLR 23/21 A2995 RMK AO2 SLP150 T02280206 PNO $
KDYR 190856Z AUTO 06005KT 10SM OVC055 24/21 A2995 RMK AO2 SLP149 6//// T02390211 56005 PNO $